sensor_id;sensor_type;location;lat;lon;timestamp;temperature;humidity
3086;DHT22;52812;48.960;9.108;2023-09-08T00:02:02;14.70;99.90
3086;DHT22;52812;48.960;9.108;2023-09-08T00:04:28;14.60;99.90
3086;DHT22;52812;48.960;9.108;2023-09-08T00:06:53;14.60;99.90
3086;DHT22;52812;48.960;9.108;2023-09-08T00:09:19;14.60;99.90
3086;DHT22;52812;48.960;9.108;2023-09-08T00:11:44;14.50;99.90
3086;DHT22;52812;48.960;9.108;2023-09-08T00:14:10;14.40;99.90
3086;DHT22;52812;48.960;9.108;2023-09-08T00:16:35;14.40;99.90
3086;DHT22;52812;48.960;9.108;2023-09-08T00:19:02;14.40;99.90
3086;DHT22;52812;48.960;9.108;2023-09-08T00:21:28;14.40;99.90
3086;DHT22;52812;48.960;9.108;2023-09-08T00:23:53;14.30;99.90
3086;DHT22;52812;48.960;9.108;2023-09-08T00:26:20;14.30;99.90
3086;DHT22;52812;48.960;9.108;2023-09-08T00:28:46;14.20;99.90
3086;DHT22;52812;48.960;9.108;2023-09-08T00:31:12;14.20;99.90
3086;DHT22;52812;48.960;9.108;2023-09-08T00:33:37;14.10;99.90
3086;DHT22;52812;48.960;9.108;2023-09-08T00:36:03;14.10;99.90
3086;DHT22;52812;48.960;9.108;2023-09-08T00:38:29;14.10;99.90
3086;DHT22;52812;48.960;9.108;2023-09-08T00:40:54;14.00;99.90
3086;DHT22;52812;48.960;9.108;2023-09-08T00:43:20;14.00;99.90
3086;DHT22;52812;48.960;9.108;2023-09-08T00:45:46;14.00;99.90
3086;DHT22;52812;48.960;9.108;2023-09-08T00:48:12;14.00;99.90
3086;DHT22;52812;48.960;9.108;2023-09-08T00:50:38;14.00;99.90
3086;DHT22;52812;48.960;9.108;2023-09-08T00:53:05;14.00;99.90
3086;DHT22;52812;48.960;9.108;2023-09-08T00:55:31;14.00;99.90
3086;DHT22;52812;48.960;9.108;2023-09-08T00:58:00;13.90;99.90
3086;DHT22;52812;48.960;9.108;2023-09-08T01:00:27;13.80;99.90
3086;DHT22;52812;48.960;9.108;2023-09-08T01:02:52;13.80;99.90
3086;DHT22;52812;48.960;9.108;2023-09-08T01:05:18;13.70;99.90
3086;DHT22;52812;48.960;9.108;2023-09-08T01:07:44;13.70;99.90
3086;DHT22;52812;48.960;9.108;2023-09-08T01:10:13;13.70;99.90
3086;DHT22;52812;48.960;9.108;2023-09-08T01:12:39;13.70;99.90
3086;DHT22;52812;48.960;9.108;2023-09-08T01:15:05;13.70;99.90
3086;DHT22;52812;48.960;9.108;2023-09-08T01:17:31;13.80;99.90
3086;DHT22;52812;48.960;9.108;2023-09-08T01:20:18;13.80;99.90
3086;DHT22;52812;48.960;9.108;2023-09-08T01:25:46;13.70;99.90
3086;DHT22;52812;48.960;9.108;2023-09-08T01:28:12;13.60;99.90
3086;DHT22;52812;48.960;9.108;2023-09-08T01:30:38;13.50;99.90
3086;DHT22;52812;48.960;9.108;2023-09-08T01:33:05;13.50;99.90
3086;DHT22;52812;48.960;9.108;2023-09-08T01:35:30;13.50;99.90
3086;DHT22;52812;48.960;9.108;2023-09-08T01:37:56;13.40;99.90
3086;DHT22;52812;48.960;9.108;2023-09-08T01:40:22;13.50;99.90
3086;DHT22;52812;48.960;9.108;2023-09-08T01:42:48;13.40;99.90
3086;DHT22;52812;48.960;9.108;2023-09-08T01:45:14;13.30;99.90
3086;DHT22;52812;48.960;9.108;2023-09-08T01:47:40;13.30;99.90
3086;DHT22;52812;48.960;9.108;2023-09-08T01:50:05;13.30;99.90
3086;DHT22;52812;48.960;9.108;2023-09-08T01:52:31;13.30;99.90
3086;DHT22;52812;48.960;9.108;2023-09-08T01:54:57;13.30;99.90
3086;DHT22;52812;48.960;9.108;2023-09-08T01:57:22;13.30;99.90
3086;DHT22;52812;48.960;9.108;2023-09-08T01:59:48;13.30;99.90
3086;DHT22;52812;48.960;9.108;2023-09-08T02:02:13;13.30;99.90
3086;DHT22;52812;48.960;9.108;2023-09-08T02:04:39;13.30;99.90
3086;DHT22;52812;48.960;9.108;2023-09-08T02:07:05;13.30;99.90
3086;DHT22;52812;48.960;9.108;2023-09-08T02:09:32;13.20;99.90
3086;DHT22;52812;48.960;9.108;2023-09-08T02:11:58;13.20;99.90
3086;DHT22;52812;48.960;9.108;2023-09-08T02:14:23;13.20;99.90
3086;DHT22;52812;48.960;9.108;2023-09-08T02:16:49;13.20;99.90
3086;DHT22;52812;48.960;9.108;2023-09-08T02:19:14;13.10;99.90
3086;DHT22;52812;48.960;9.108;2023-09-08T02:21:40;13.10;99.90
3086;DHT22;52812;48.960;9.108;2023-09-08T02:24:06;13.10;99.90
3086;DHT22;52812;48.960;9.108;2023-09-08T02:26:31;13.10;99.90
3086;DHT22;52812;48.960;9.108;2023-09-08T02:28:59;13.00;99.90
3086;DHT22;52812;48.960;9.108;2023-09-08T02:31:26;13.10;99.90
3086;DHT22;52812;48.960;9.108;2023-09-08T02:33:52;13.20;99.90
3086;DHT22;52812;48.960;9.108;2023-09-08T02:36:17;13.20;99.90
3086;DHT22;52812;48.960;9.108;2023-09-08T02:38:43;13.20;99.90
3086;DHT22;52812;48.960;9.108;2023-09-08T02:41:09;13.20;99.90
3086;DHT22;52812;48.960;9.108;2023-09-08T02:43:34;13.10;99.90
3086;DHT22;52812;48.960;9.108;2023-09-08T02:46:00;13.10;99.90
3086;DHT22;52812;48.960;9.108;2023-09-08T02:48:25;13.00;99.90
3086;DHT22;52812;48.960;9.108;2023-09-08T02:50:51;13.00;99.90
3086;DHT22;52812;48.960;9.108;2023-09-08T02:53:17;12.90;99.90
3086;DHT22;52812;48.960;9.108;2023-09-08T02:55:42;12.90;99.90
3086;DHT22;52812;48.960;9.108;2023-09-08T02:58:08;12.80;99.90
3086;DHT22;52812;48.960;9.108;2023-09-08T03:00:33;12.80;99.90
3086;DHT22;52812;48.960;9.108;2023-09-08T03:02:59;12.80;99.90
3086;DHT22;52812;48.960;9.108;2023-09-08T03:05:24;12.70;99.90
3086;DHT22;52812;48.960;9.108;2023-09-08T03:07:50;12.70;99.90
3086;DHT22;52812;48.960;9.108;2023-09-08T03:10:15;12.70;99.90
3086;DHT22;52812;48.960;9.108;2023-09-08T03:12:41;12.70;99.90
3086;DHT22;52812;48.960;9.108;2023-09-08T03:15:07;12.60;99.90
3086;DHT22;52812;48.960;9.108;2023-09-08T03:17:33;12.60;99.90
3086;DHT22;52812;48.960;9.108;2023-09-08T03:19:58;12.60;99.90
3086;DHT22;52812;48.960;9.108;2023-09-08T03:22:24;12.60;99.90
3086;DHT22;52812;48.960;9.108;2023-09-08T03:24:50;12.50;99.90
3086;DHT22;52812;48.960;9.108;2023-09-08T03:27:15;12.40;99.90
3086;DHT22;52812;48.960;9.108;2023-09-08T03:29:41;12.40;99.90
3086;DHT22;52812;48.960;9.108;2023-09-08T03:32:06;12.40;99.90
3086;DHT22;52812;48.960;9.108;2023-09-08T03:34:32;12.40;99.90
3086;DHT22;52812;48.960;9.108;2023-09-08T03:36:57;12.40;99.90
3086;DHT22;52812;48.960;9.108;2023-09-08T03:39:23;12.40;99.90
3086;DHT22;52812;48.960;9.108;2023-09-08T03:41:48;12.30;99.90
3086;DHT22;52812;48.960;9.108;2023-09-08T03:44:14;12.30;99.90
3086;DHT22;52812;48.960;9.108;2023-09-08T03:46:39;12.30;99.90
3086;DHT22;52812;48.960;9.108;2023-09-08T03:49:05;12.30;99.90
3086;DHT22;52812;48.960;9.108;2023-09-08T03:51:31;12.20;99.90
3086;DHT22;52812;48.960;9.108;2023-09-08T03:53:57;12.20;99.90
3086;DHT22;52812;48.960;9.108;2023-09-08T03:56:22;12.20;99.90
3086;DHT22;52812;48.960;9.108;2023-09-08T03:58:48;12.20;99.90
3086;DHT22;52812;48.960;9.108;2023-09-08T04:01:14;12.10;99.90
3086;DHT22;52812;48.960;9.108;2023-09-08T04:03:40;12.10;99.90
3086;DHT22;52812;48.960;9.108;2023-09-08T04:06:05;12.10;99.90
3086;DHT22;52812;48.960;9.108;2023-09-08T04:08:31;12.10;99.90
3086;DHT22;52812;48.960;9.108;2023-09-08T04:10:56;12.10;99.90
3086;DHT22;52812;48.960;9.108;2023-09-08T04:13:22;12.10;99.90
3086;DHT22;52812;48.960;9.108;2023-09-08T04:15:47;12.00;99.90
3086;DHT22;52812;48.960;9.108;2023-09-08T04:18:13;12.00;99.90
3086;DHT22;52812;48.960;9.108;2023-09-08T04:20:39;12.00;99.90
3086;DHT22;52812;48.960;9.108;2023-09-08T04:23:04;12.00;99.90
3086;DHT22;52812;48.960;9.108;2023-09-08T04:25:30;11.90;99.90
3086;DHT22;52812;48.960;9.108;2023-09-08T04:27:56;11.90;99.90
3086;DHT22;52812;48.960;9.108;2023-09-08T04:30:21;11.90;99.90
3086;DHT22;52812;48.960;9.108;2023-09-08T04:32:47;11.90;99.90
3086;DHT22;52812;48.960;9.108;2023-09-08T04:35:12;11.90;99.90
3086;DHT22;52812;48.960;9.108;2023-09-08T04:37:38;11.90;99.90
3086;DHT22;52812;48.960;9.108;2023-09-08T04:40:05;11.90;99.90
3086;DHT22;52812;48.960;9.108;2023-09-08T04:42:31;11.90;99.90
3086;DHT22;52812;48.960;9.108;2023-09-08T04:44:56;12.00;99.90
3086;DHT22;52812;48.960;9.108;2023-09-08T04:47:22;12.00;99.90
3086;DHT22;52812;48.960;9.108;2023-09-08T04:49:47;12.00;99.90
3086;DHT22;52812;48.960;9.108;2023-09-08T04:52:13;12.00;99.90
3086;DHT22;52812;48.960;9.108;2023-09-08T04:54:40;12.00;99.90
3086;DHT22;52812;48.960;9.108;2023-09-08T04:57:05;12.00;99.90
3086;DHT22;52812;48.960;9.108;2023-09-08T04:59:31;12.00;99.90
3086;DHT22;52812;48.960;9.108;2023-09-08T05:01:58;12.00;99.90
3086;DHT22;52812;48.960;9.108;2023-09-08T05:04:23;12.00;99.90
3086;DHT22;52812;48.960;9.108;2023-09-08T05:06:49;12.00;99.90
3086;DHT22;52812;48.960;9.108;2023-09-08T05:09:14;12.00;99.90
3086;DHT22;52812;48.960;9.108;2023-09-08T05:11:40;11.90;99.90
3086;DHT22;52812;48.960;9.108;2023-09-08T05:14:05;11.90;99.90
3086;DHT22;52812;48.960;9.108;2023-09-08T05:16:31;12.00;99.90
3086;DHT22;52812;48.960;9.108;2023-09-08T05:19:04;12.00;99.90
3086;DHT22;52812;48.960;9.108;2023-09-08T05:21:34;12.00;99.90
3086;DHT22;52812;48.960;9.108;2023-09-08T05:23:59;12.10;99.90
3086;DHT22;52812;48.960;9.108;2023-09-08T05:26:25;12.20;99.90
3086;DHT22;52812;48.960;9.108;2023-09-08T05:28:50;12.30;99.90
3086;DHT22;52812;48.960;9.108;2023-09-08T05:31:16;12.40;99.90
3086;DHT22;52812;48.960;9.108;2023-09-08T05:33:42;12.50;99.90
3086;DHT22;52812;48.960;9.108;2023-09-08T05:36:07;12.70;99.90
3086;DHT22;52812;48.960;9.108;2023-09-08T05:38:33;12.80;99.90
3086;DHT22;52812;48.960;9.108;2023-09-08T05:40:58;13.00;99.90
3086;DHT22;52812;48.960;9.108;2023-09-08T05:43:25;13.20;99.90
3086;DHT22;52812;48.960;9.108;2023-09-08T05:45:50;13.50;99.90
3086;DHT22;52812;48.960;9.108;2023-09-08T05:48:16;13.80;99.90
3086;DHT22;52812;48.960;9.108;2023-09-08T05:50:42;14.20;99.90
3086;DHT22;52812;48.960;9.108;2023-09-08T05:53:08;14.60;99.90
3086;DHT22;52812;48.960;9.108;2023-09-08T05:55:33;15.10;99.90
3086;DHT22;52812;48.960;9.108;2023-09-08T05:57:59;15.60;99.90
3086;DHT22;52812;48.960;9.108;2023-09-08T06:00:24;15.90;99.90
3086;DHT22;52812;48.960;9.108;2023-09-08T06:02:50;16.30;99.90
3086;DHT22;52812;48.960;9.108;2023-09-08T06:05:16;16.70;99.90
3086;DHT22;52812;48.960;9.108;2023-09-08T06:07:41;17.10;99.90
3086;DHT22;52812;48.960;9.108;2023-09-08T06:10:07;17.60;99.90
3086;DHT22;52812;48.960;9.108;2023-09-08T06:12:33;18.00;99.90
3086;DHT22;52812;48.960;9.108;2023-09-08T06:14:58;18.50;99.90
3086;DHT22;52812;48.960;9.108;2023-09-08T06:17:24;18.90;99.90
3086;DHT22;52812;48.960;9.108;2023-09-08T06:19:49;19.20;99.90
3086;DHT22;52812;48.960;9.108;2023-09-08T06:22:15;19.40;99.90
3086;DHT22;52812;48.960;9.108;2023-09-08T06:24:40;19.60;99.90
3086;DHT22;52812;48.960;9.108;2023-09-08T06:27:06;19.90;99.90
3086;DHT22;52812;48.960;9.108;2023-09-08T06:29:32;20.10;99.90
3086;DHT22;52812;48.960;9.108;2023-09-08T06:31:58;20.20;99.90
3086;DHT22;52812;48.960;9.108;2023-09-08T06:34:23;20.40;99.90
3086;DHT22;52812;48.960;9.108;2023-09-08T06:36:49;20.40;99.90
3086;DHT22;52812;48.960;9.108;2023-09-08T06:39:14;20.40;99.90
3086;DHT22;52812;48.960;9.108;2023-09-08T06:41:40;20.60;99.90
3086;DHT22;52812;48.960;9.108;2023-09-08T06:44:06;21.00;99.90
3086;DHT22;52812;48.960;9.108;2023-09-08T06:46:32;21.30;99.90
3086;DHT22;52812;48.960;9.108;2023-09-08T06:48:57;21.60;99.90
3086;DHT22;52812;48.960;9.108;2023-09-08T06:51:23;21.90;99.90
3086;DHT22;52812;48.960;9.108;2023-09-08T06:53:57;21.90;99.90
3086;DHT22;52812;48.960;9.108;2023-09-08T06:56:23;22.50;99.90
3086;DHT22;52812;48.960;9.108;2023-09-08T06:58:48;22.70;99.90
3086;DHT22;52812;48.960;9.108;2023-09-08T07:01:14;22.90;99.90
3086;DHT22;52812;48.960;9.108;2023-09-08T07:03:39;23.20;99.90
3086;DHT22;52812;48.960;9.108;2023-09-08T07:06:05;23.30;99.90
3086;DHT22;52812;48.960;9.108;2023-09-08T07:08:30;23.20;99.90
3086;DHT22;52812;48.960;9.108;2023-09-08T07:10:56;23.20;99.90
3086;DHT22;52812;48.960;9.108;2023-09-08T07:13:22;22.90;99.90
3086;DHT22;52812;48.960;9.108;2023-09-08T07:15:47;23.00;99.90
3086;DHT22;52812;48.960;9.108;2023-09-08T07:18:13;23.00;99.90
3086;DHT22;52812;48.960;9.108;2023-09-08T07:20:38;23.40;99.90
3086;DHT22;52812;48.960;9.108;2023-09-08T07:23:04;23.40;99.90
3086;DHT22;52812;48.960;9.108;2023-09-08T07:25:29;23.50;99.90
3086;DHT22;52812;48.960;9.108;2023-09-08T07:27:55;23.50;99.90
3086;DHT22;52812;48.960;9.108;2023-09-08T07:30:21;23.60;99.90
3086;DHT22;52812;48.960;9.108;2023-09-08T07:32:46;23.60;99.90
3086;DHT22;52812;48.960;9.108;2023-09-08T07:35:12;23.40;99.90
3086;DHT22;52812;48.960;9.108;2023-09-08T07:37:40;23.20;99.90
3086;DHT22;52812;48.960;9.108;2023-09-08T07:40:08;23.80;99.90
3086;DHT22;52812;48.960;9.108;2023-09-08T07:42:34;23.80;99.90
3086;DHT22;52812;48.960;9.108;2023-09-08T07:45:00;23.40;99.90
3086;DHT22;52812;48.960;9.108;2023-09-08T07:47:25;23.10;99.90
3086;DHT22;52812;48.960;9.108;2023-09-08T07:49:51;22.80;99.90
3086;DHT22;52812;48.960;9.108;2023-09-08T07:52:16;22.90;99.90
3086;DHT22;52812;48.960;9.108;2023-09-08T07:54:42;23.00;99.90
3086;DHT22;52812;48.960;9.108;2023-09-08T07:57:08;23.00;99.90
3086;DHT22;52812;48.960;9.108;2023-09-08T07:59:33;23.20;99.90
3086;DHT22;52812;48.960;9.108;2023-09-08T08:01:59;23.20;99.90
3086;DHT22;52812;48.960;9.108;2023-09-08T08:04:24;22.90;99.90
3086;DHT22;52812;48.960;9.108;2023-09-08T08:06:50;23.10;99.90
3086;DHT22;52812;48.960;9.108;2023-09-08T08:09:15;23.50;99.90
3086;DHT22;52812;48.960;9.108;2023-09-08T08:11:41;23.60;99.90
3086;DHT22;52812;48.960;9.108;2023-09-08T08:14:07;23.60;99.90
3086;DHT22;52812;48.960;9.108;2023-09-08T08:16:32;23.00;99.90
3086;DHT22;52812;48.960;9.108;2023-09-08T08:18:58;22.70;99.90
3086;DHT22;52812;48.960;9.108;2023-09-08T08:21:24;22.60;99.90
3086;DHT22;52812;48.960;9.108;2023-09-08T08:23:50;22.50;99.90
3086;DHT22;52812;48.960;9.108;2023-09-08T08:26:16;22.50;99.90
3086;DHT22;52812;48.960;9.108;2023-09-08T08:28:42;22.30;99.90
3086;DHT22;52812;48.960;9.108;2023-09-08T08:31:08;22.40;99.90
3086;DHT22;52812;48.960;9.108;2023-09-08T08:33:33;22.60;99.90
3086;DHT22;52812;48.960;9.108;2023-09-08T08:35:59;22.60;99.90
3086;DHT22;52812;48.960;9.108;2023-09-08T08:38:25;22.70;99.90
3086;DHT22;52812;48.960;9.108;2023-09-08T08:40:51;22.90;99.90
3086;DHT22;52812;48.960;9.108;2023-09-08T08:43:16;22.90;99.90
3086;DHT22;52812;48.960;9.108;2023-09-08T08:45:43;23.00;99.90
3086;DHT22;52812;48.960;9.108;2023-09-08T08:48:10;23.10;99.90
3086;DHT22;52812;48.960;9.108;2023-09-08T08:50:41;23.10;99.90
3086;DHT22;52812;48.960;9.108;2023-09-08T08:53:08;23.30;99.90
3086;DHT22;52812;48.960;9.108;2023-09-08T08:55:34;23.50;99.90
3086;DHT22;52812;48.960;9.108;2023-09-08T08:58:06;23.60;99.90
3086;DHT22;52812;48.960;9.108;2023-09-08T09:00:34;23.60;99.90
3086;DHT22;52812;48.960;9.108;2023-09-08T09:03:01;23.50;99.90
3086;DHT22;52812;48.960;9.108;2023-09-08T09:05:29;23.60;99.90
3086;DHT22;52812;48.960;9.108;2023-09-08T09:07:57;23.70;99.90
3086;DHT22;52812;48.960;9.108;2023-09-08T09:10:23;23.90;99.90
3086;DHT22;52812;48.960;9.108;2023-09-08T09:12:49;24.20;99.90
3086;DHT22;52812;48.960;9.108;2023-09-08T09:15:14;24.30;99.90
3086;DHT22;52812;48.960;9.108;2023-09-08T09:17:41;24.40;99.90
3086;DHT22;52812;48.960;9.108;2023-09-08T09:20:14;24.30;99.90
3086;DHT22;52812;48.960;9.108;2023-09-08T09:22:41;24.20;99.90
3086;DHT22;52812;48.960;9.108;2023-09-08T09:25:06;24.40;99.90
3086;DHT22;52812;48.960;9.108;2023-09-08T09:27:33;24.60;99.90
3086;DHT22;52812;48.960;9.108;2023-09-08T09:30:03;24.70;99.90
3086;DHT22;52812;48.960;9.108;2023-09-08T09:32:29;24.80;99.90
3086;DHT22;52812;48.960;9.108;2023-09-08T09:34:57;25.00;99.90
3086;DHT22;52812;48.960;9.108;2023-09-08T09:37:23;25.10;99.90
3086;DHT22;52812;48.960;9.108;2023-09-08T09:39:53;25.20;99.90
3086;DHT22;52812;48.960;9.108;2023-09-08T09:42:22;25.30;99.90
3086;DHT22;52812;48.960;9.108;2023-09-08T09:44:48;25.00;99.90
3086;DHT22;52812;48.960;9.108;2023-09-08T09:47:15;25.20;99.90
3086;DHT22;52812;48.960;9.108;2023-09-08T09:49:42;25.20;99.90
3086;DHT22;52812;48.960;9.108;2023-09-08T09:52:08;25.40;99.90
3086;DHT22;52812;48.960;9.108;2023-09-08T09:54:34;25.40;99.90
3086;DHT22;52812;48.960;9.108;2023-09-08T09:57:00;25.40;99.90
3086;DHT22;52812;48.960;9.108;2023-09-08T09:59:27;25.40;99.90
3086;DHT22;52812;48.960;9.108;2023-09-08T10:01:53;25.50;99.90
3086;DHT22;52812;48.960;9.108;2023-09-08T10:04:19;25.50;99.90
3086;DHT22;52812;48.960;9.108;2023-09-08T10:06:45;25.30;99.90
3086;DHT22;52812;48.960;9.108;2023-09-08T10:09:11;25.30;99.90
3086;DHT22;52812;48.960;9.108;2023-09-08T10:11:46;25.40;99.90
3086;DHT22;52812;48.960;9.108;2023-09-08T10:14:13;25.60;99.90
3086;DHT22;52812;48.960;9.108;2023-09-08T10:16:40;25.60;99.90
3086;DHT22;52812;48.960;9.108;2023-09-08T10:19:09;25.60;99.90
3086;DHT22;52812;48.960;9.108;2023-09-08T10:21:40;25.70;99.90
3086;DHT22;52812;48.960;9.108;2023-09-08T10:26:42;25.70;99.90
3086;DHT22;52812;48.960;9.108;2023-09-08T10:29:09;25.80;99.90
3086;DHT22;52812;48.960;9.108;2023-09-08T10:31:35;25.90;99.90
3086;DHT22;52812;48.960;9.108;2023-09-08T10:34:01;26.00;99.90
3086;DHT22;52812;48.960;9.108;2023-09-08T10:36:28;25.90;99.90
3086;DHT22;52812;48.960;9.108;2023-09-08T10:38:54;25.90;99.90
3086;DHT22;52812;48.960;9.108;2023-09-08T10:43:55;25.70;99.90
3086;DHT22;52812;48.960;9.108;2023-09-08T10:46:29;25.70;99.90
3086;DHT22;52812;48.960;9.108;2023-09-08T10:49:02;25.80;99.90
3086;DHT22;52812;48.960;9.108;2023-09-08T10:51:28;25.90;99.90
3086;DHT22;52812;48.960;9.108;2023-09-08T10:53:54;26.00;99.90
3086;DHT22;52812;48.960;9.108;2023-09-08T10:56:20;26.00;99.90
3086;DHT22;52812;48.960;9.108;2023-09-08T10:58:51;26.00;99.90
3086;DHT22;52812;48.960;9.108;2023-09-08T11:01:18;26.00;99.90
3086;DHT22;52812;48.960;9.108;2023-09-08T11:03:46;26.00;99.90
3086;DHT22;52812;48.960;9.108;2023-09-08T11:06:15;26.00;99.90
3086;DHT22;52812;48.960;9.108;2023-09-08T11:08:43;26.10;99.90
3086;DHT22;52812;48.960;9.108;2023-09-08T11:11:13;26.20;99.90
3086;DHT22;52812;48.960;9.108;2023-09-08T11:13:39;26.10;99.90
3086;DHT22;52812;48.960;9.108;2023-09-08T11:16:11;26.30;99.90
3086;DHT22;52812;48.960;9.108;2023-09-08T11:18:36;26.10;99.90
3086;DHT22;52812;48.960;9.108;2023-09-08T11:21:03;26.10;99.90
3086;DHT22;52812;48.960;9.108;2023-09-08T11:23:33;25.90;99.90
3086;DHT22;52812;48.960;9.108;2023-09-08T11:25:59;25.80;99.90
3086;DHT22;52812;48.960;9.108;2023-09-08T11:28:26;25.80;99.90
3086;DHT22;52812;48.960;9.108;2023-09-08T11:30:52;25.80;99.90
3086;DHT22;52812;48.960;9.108;2023-09-08T11:33:20;25.90;99.90
3086;DHT22;52812;48.960;9.108;2023-09-08T11:35:55;26.00;99.90
3086;DHT22;52812;48.960;9.108;2023-09-08T11:38:27;26.10;99.90
3086;DHT22;52812;48.960;9.108;2023-09-08T11:40:54;26.20;99.90
3086;DHT22;52812;48.960;9.108;2023-09-08T11:43:20;26.20;99.90
3086;DHT22;52812;48.960;9.108;2023-09-08T11:45:46;26.20;99.90
3086;DHT22;52812;48.960;9.108;2023-09-08T11:48:14;26.30;99.90
3086;DHT22;52812;48.960;9.108;2023-09-08T11:50:41;26.50;99.90
3086;DHT22;52812;48.960;9.108;2023-09-08T11:53:06;26.50;99.90
3086;DHT22;52812;48.960;9.108;2023-09-08T11:55:32;26.50;99.90
3086;DHT22;52812;48.960;9.108;2023-09-08T11:57:58;26.40;99.90
3086;DHT22;52812;48.960;9.108;2023-09-08T12:00:25;26.30;99.90
3086;DHT22;52812;48.960;9.108;2023-09-08T12:02:51;26.30;99.90
3086;DHT22;52812;48.960;9.108;2023-09-08T12:07:49;26.40;99.90
3086;DHT22;52812;48.960;9.108;2023-09-08T12:10:15;26.50;99.90
3086;DHT22;52812;48.960;9.108;2023-09-08T12:12:44;26.60;99.90
3086;DHT22;52812;48.960;9.108;2023-09-08T12:15:10;26.60;99.90
3086;DHT22;52812;48.960;9.108;2023-09-08T12:17:49;26.60;99.90
3086;DHT22;52812;48.960;9.108;2023-09-08T12:20:16;26.50;99.90
3086;DHT22;52812;48.960;9.108;2023-09-08T12:22:49;26.40;99.90
3086;DHT22;52812;48.960;9.108;2023-09-08T12:25:18;26.50;99.90
3086;DHT22;52812;48.960;9.108;2023-09-08T12:27:45;26.60;99.90
3086;DHT22;52812;48.960;9.108;2023-09-08T12:30:22;26.70;99.90
3086;DHT22;52812;48.960;9.108;2023-09-08T12:32:56;26.80;99.90
3086;DHT22;52812;48.960;9.108;2023-09-08T12:35:23;26.80;99.90
3086;DHT22;52812;48.960;9.108;2023-09-08T12:38:00;26.80;99.90
3086;DHT22;52812;48.960;9.108;2023-09-08T12:40:26;27.00;99.90
3086;DHT22;52812;48.960;9.108;2023-09-08T12:42:52;27.00;99.90
3086;DHT22;52812;48.960;9.108;2023-09-08T12:45:20;26.90;99.90
3086;DHT22;52812;48.960;9.108;2023-09-08T12:47:45;26.90;99.90
3086;DHT22;52812;48.960;9.108;2023-09-08T12:50:11;26.90;99.90
3086;DHT22;52812;48.960;9.108;2023-09-08T12:52:38;27.00;99.90
3086;DHT22;52812;48.960;9.108;2023-09-08T12:55:04;27.00;99.90
3086;DHT22;52812;48.960;9.108;2023-09-08T12:57:30;26.90;99.90
3086;DHT22;52812;48.960;9.108;2023-09-08T12:59:56;26.80;99.90
3086;DHT22;52812;48.960;9.108;2023-09-08T13:02:22;26.90;99.90
3086;DHT22;52812;48.960;9.108;2023-09-08T13:04:48;26.90;99.90
3086;DHT22;52812;48.960;9.108;2023-09-08T13:07:17;27.10;99.90
3086;DHT22;52812;48.960;9.108;2023-09-08T13:09:43;27.20;99.90
3086;DHT22;52812;48.960;9.108;2023-09-08T13:12:09;27.30;99.90
3086;DHT22;52812;48.960;9.108;2023-09-08T13:14:35;27.10;99.90
3086;DHT22;52812;48.960;9.108;2023-09-08T13:17:01;27.10;99.90
3086;DHT22;52812;48.960;9.108;2023-09-08T13:19:27;27.10;99.90
3086;DHT22;52812;48.960;9.108;2023-09-08T13:21:53;27.20;99.90
3086;DHT22;52812;48.960;9.108;2023-09-08T13:24:18;27.30;99.90
3086;DHT22;52812;48.960;9.108;2023-09-08T13:26:46;27.40;99.90
3086;DHT22;52812;48.960;9.108;2023-09-08T13:29:11;27.30;99.90
3086;DHT22;52812;48.960;9.108;2023-09-08T13:31:37;27.20;99.90
3086;DHT22;52812;48.960;9.108;2023-09-08T13:34:02;27.00;99.90
3086;DHT22;52812;48.960;9.108;2023-09-08T13:36:28;26.90;99.90
3086;DHT22;52812;48.960;9.108;2023-09-08T13:38:53;26.90;99.90
3086;DHT22;52812;48.960;9.108;2023-09-08T13:41:19;27.00;99.90
3086;DHT22;52812;48.960;9.108;2023-09-08T13:43:44;27.10;99.90
3086;DHT22;52812;48.960;9.108;2023-09-08T13:46:10;27.20;99.90
3086;DHT22;52812;48.960;9.108;2023-09-08T13:48:36;27.30;99.90
3086;DHT22;52812;48.960;9.108;2023-09-08T13:51:02;27.30;99.90
3086;DHT22;52812;48.960;9.108;2023-09-08T13:53:29;27.40;99.90
3086;DHT22;52812;48.960;9.108;2023-09-08T13:55:56;27.50;99.90
3086;DHT22;52812;48.960;9.108;2023-09-08T13:58:22;27.50;99.90
3086;DHT22;52812;48.960;9.108;2023-09-08T14:00:47;27.40;99.90
3086;DHT22;52812;48.960;9.108;2023-09-08T14:03:14;27.40;99.90
3086;DHT22;52812;48.960;9.108;2023-09-08T14:05:40;27.50;99.90
3086;DHT22;52812;48.960;9.108;2023-09-08T14:08:06;27.50;99.90
3086;DHT22;52812;48.960;9.108;2023-09-08T14:10:31;27.40;99.90
3086;DHT22;52812;48.960;9.108;2023-09-08T14:12:57;27.50;99.90
3086;DHT22;52812;48.960;9.108;2023-09-08T14:15:25;27.40;99.90
3086;DHT22;52812;48.960;9.108;2023-09-08T14:17:51;27.30;99.90
3086;DHT22;52812;48.960;9.108;2023-09-08T14:20:18;27.20;99.90
3086;DHT22;52812;48.960;9.108;2023-09-08T14:22:44;27.20;99.90
3086;DHT22;52812;48.960;9.108;2023-09-08T14:25:09;27.40;99.90
3086;DHT22;52812;48.960;9.108;2023-09-08T14:27:36;27.50;99.90
3086;DHT22;52812;48.960;9.108;2023-09-08T14:30:03;27.50;99.90
3086;DHT22;52812;48.960;9.108;2023-09-08T14:32:29;27.40;99.90
3086;DHT22;52812;48.960;9.108;2023-09-08T14:34:55;27.40;99.90
3086;DHT22;52812;48.960;9.108;2023-09-08T14:37:24;27.30;99.90
3086;DHT22;52812;48.960;9.108;2023-09-08T14:39:50;27.30;99.90
3086;DHT22;52812;48.960;9.108;2023-09-08T14:42:15;27.30;99.90
3086;DHT22;52812;48.960;9.108;2023-09-08T14:44:41;27.40;99.90
3086;DHT22;52812;48.960;9.108;2023-09-08T14:47:07;27.40;99.90
3086;DHT22;52812;48.960;9.108;2023-09-08T14:49:34;27.40;99.90
3086;DHT22;52812;48.960;9.108;2023-09-08T14:51:59;27.30;99.90
3086;DHT22;52812;48.960;9.108;2023-09-08T14:54:25;27.20;99.90
3086;DHT22;52812;48.960;9.108;2023-09-08T14:56:51;27.20;99.90
3086;DHT22;52812;48.960;9.108;2023-09-08T14:59:17;27.20;99.90
3086;DHT22;52812;48.960;9.108;2023-09-08T15:01:42;27.10;99.90
3086;DHT22;52812;48.960;9.108;2023-09-08T15:04:10;27.20;99.90
3086;DHT22;52812;48.960;9.108;2023-09-08T15:06:36;27.10;99.90
3086;DHT22;52812;48.960;9.108;2023-09-08T15:09:01;27.20;99.90
3086;DHT22;52812;48.960;9.108;2023-09-08T15:11:27;27.20;99.90
3086;DHT22;52812;48.960;9.108;2023-09-08T15:13:53;27.20;99.90
3086;DHT22;52812;48.960;9.108;2023-09-08T15:16:18;27.20;99.90
3086;DHT22;52812;48.960;9.108;2023-09-08T15:18:44;27.30;99.90
3086;DHT22;52812;48.960;9.108;2023-09-08T15:21:09;27.30;99.90
3086;DHT22;52812;48.960;9.108;2023-09-08T15:23:37;27.30;99.90
3086;DHT22;52812;48.960;9.108;2023-09-08T15:26:03;27.30;99.90
3086;DHT22;52812;48.960;9.108;2023-09-08T15:28:29;27.20;99.90
3086;DHT22;52812;48.960;9.108;2023-09-08T15:30:54;27.10;99.90
3086;DHT22;52812;48.960;9.108;2023-09-08T15:33:20;26.90;99.90
3086;DHT22;52812;48.960;9.108;2023-09-08T15:35:47;26.90;99.90
3086;DHT22;52812;48.960;9.108;2023-09-08T15:38:13;26.90;99.90
3086;DHT22;52812;48.960;9.108;2023-09-08T15:43:31;26.70;99.90
3086;DHT22;52812;48.960;9.108;2023-09-08T15:45:57;26.70;99.90
3086;DHT22;52812;48.960;9.108;2023-09-08T15:48:22;26.70;99.90
3086;DHT22;52812;48.960;9.108;2023-09-08T15:50:48;26.70;99.90
3086;DHT22;52812;48.960;9.108;2023-09-08T15:53:13;26.50;99.90